»·PEaware :: SWA199 KJAC-KDEN

SWA199 :: KJAC-KDEN

FLIGHT INFORMATION

Flight Status: Arrived
Operator:
Southwest Airlines
More flights by this operator :: More flights under this callsign
Pilot: Steve F. (26981)
Aircraft: BOEING 737-700
(B737)
More flights by this aircraft type
Origin: KJAC Jackson Hole
United States
Destination: KDEN Denver Intl
United States
More flights between these airports :: More routes between these airports
Route: +ALPIN2 KICNE TOFUU FLATI1
File this flight plan on PilotEdge
Remarks:
Altitude:
(Current/Filed)
37,000ft
Speed:
(Current/Filed)
430kts
Departed: 18-Apr-20 04:43 PM
Arrived: 18-Apr-20 05:40 PM
Distance/Time
Traveled:
352nm/0:57
Distance/Time
To Go:
Arrived

Flight Plot

Page will automatically refresh every two minutes.

Flight plan parsing failed; only flown route is shown


Map Options




Map Legend


Flown Route
Filed Route
Departure Airport
Arrival Airport
Navaid (VOR, NDB)
Fix

Horizontal Profiles

Position Reports

Time Latitude Longitude Heading Altitude Ground
Speed
18-Apr-20 16:28 43.604150 -110.735892 108 6459ft 0kts
18-Apr-20 16:30 43.604150 -110.735892 108 6459ft 0kts
18-Apr-20 16:31 43.604150 -110.735892 108 6459ft 0kts
18-Apr-20 16:32 43.604150 -110.735892 108 6459ft 0kts
18-Apr-20 16:32 43.604150 -110.735892 108 6459ft 0kts
18-Apr-20 16:34 43.604150 -110.735892 108 6459ft 0kts
18-Apr-20 16:35 43.604150 -110.735892 108 6459ft 0kts
18-Apr-20 16:35 43.604193 -110.736129 93 6459ft 2kts
18-Apr-20 16:36 43.603970 -110.736728 34 6459ft 0kts
18-Apr-20 16:37 43.603971 -110.736727 34 6459ft 0kts
18-Apr-20 16:38 43.603973 -110.736725 34 6459ft 0kts
18-Apr-20 16:39 43.605607 -110.736861 19 6459ft 15kts
18-Apr-20 16:40 43.612058 -110.733708 19 6459ft 25kts
18-Apr-20 16:41 43.615111 -110.733076 289 6459ft 4kts
18-Apr-20 16:42 43.611066 -110.735956 199 6459ft 87kts
18-Apr-20 16:43 43.571223 -110.758701 206 8000ft 197kts
18-Apr-20 16:44 43.512549 -110.796552 207 9923ft 274kts
18-Apr-20 16:45 43.439579 -110.844657 208 13563ft 300kts
18-Apr-20 16:46 43.361816 -110.895315 209 17246ft 317kts
18-Apr-20 16:47 43.279666 -110.948586 209 20668ft 334kts
18-Apr-20 16:48 43.185790 -110.930185 140 22663ft 407kts
18-Apr-20 16:49 43.128120 -110.785858 115 24463ft 447kts
18-Apr-20 16:50 43.072336 -110.632237 118 26787ft 458kts
18-Apr-20 16:51 43.011114 -110.475984 119 28679ft 470kts
18-Apr-20 16:52 42.947539 -110.317997 119 30306ft 481kts
18-Apr-20 16:53 42.882632 -110.159031 119 32192ft 477kts
18-Apr-20 16:54 42.817822 -110.001607 119 33955ft 473kts
18-Apr-20 16:55 42.753258 -109.845727 120 35297ft 474kts
18-Apr-20 16:56 42.688202 -109.689552 120 36495ft 476kts
18-Apr-20 16:57 42.622276 -109.532148 120 36947ft 480kts
18-Apr-20 16:58 42.556469 -109.375870 120 36932ft 476kts
18-Apr-20 16:59 42.490541 -109.220133 120 36914ft 477kts
18-Apr-20 17:00 42.424294 -109.064470 121 36901ft 477kts
18-Apr-20 17:01 42.357906 -108.909299 121 36891ft 476kts
18-Apr-20 17:02 42.291196 -108.754186 121 36892ft 477kts
18-Apr-20 17:03 42.224249 -108.599338 121 36881ft 477kts
18-Apr-20 17:04 42.157331 -108.445357 121 36886ft 477kts
18-Apr-20 17:05 42.089975 -108.291162 122 36893ft 477kts
18-Apr-20 17:06 42.022269 -108.136963 122 36895ft 477kts
18-Apr-20 17:07 41.954757 -107.983393 122 36898ft 477kts
18-Apr-20 17:08 41.887026 -107.830787 122 36901ft 477kts
18-Apr-20 17:09 41.817907 -107.678402 126 36904ft 476kts
18-Apr-20 17:10 41.731421 -107.544847 134 36911ft 474kts
18-Apr-20 17:11 41.642987 -107.413872 133 36913ft 474kts
18-Apr-20 17:12 41.554882 -107.282946 134 36916ft 475kts
18-Apr-20 17:13 41.466017 -107.152240 134 36920ft 475kts
18-Apr-20 17:14 41.377107 -107.021939 134 36937ft 475kts
18-Apr-20 17:15 41.287876 -106.891815 134 36941ft 475kts
18-Apr-20 17:16 41.198848 -106.762408 134 36943ft 476kts
18-Apr-20 17:17 41.109693 -106.632504 135 36951ft 475kts
18-Apr-20 17:18 41.020398 -106.503010 135 36965ft 475kts
18-Apr-20 17:19 40.930838 -106.374330 135 36978ft 475kts
18-Apr-20 17:20 40.844782 -106.241732 125 35552ft 476kts
18-Apr-20 17:21 40.786297 -106.085508 116 32819ft 472kts
18-Apr-20 17:22 40.730352 -105.928295 117 30025ft 476kts
18-Apr-20 17:23 40.673319 -105.769253 117 27221ft 484kts
18-Apr-20 17:24 40.615539 -105.608976 116 24425ft 482kts
18-Apr-20 17:25 40.558457 -105.452234 116 21616ft 465kts
18-Apr-20 17:26 40.505052 -105.307693 116 20455ft 405kts
18-Apr-20 17:27 40.459274 -105.184039 116 19812ft 357kts
18-Apr-20 17:28 40.426026 -105.064650 95 17581ft 345kts
18-Apr-20 17:29 40.403241 -104.945450 107 15395ft 329kts
18-Apr-20 17:30 40.376046 -104.832142 106 13399ft 322kts
18-Apr-20 17:31 40.329351 -104.744241 162 12998ft 307kts
18-Apr-20 17:32 40.256962 -104.690886 141 12897ft 309kts
18-Apr-20 17:33 40.175674 -104.680199 181 11271ft 301kts
18-Apr-20 17:34 40.096580 -104.677890 187 10243ft 254kts
18-Apr-20 17:35 40.033188 -104.685319 180 8369ft 230kts
18-Apr-20 17:36 39.973471 -104.685956 181 6939ft 192kts
18-Apr-20 17:37 39.926529 -104.686438 182 6016ft 154kts
18-Apr-20 17:38 39.886035 -104.686979 180 5439ft 117kts
18-Apr-20 17:39 39.872474 -104.685912 151 5439ft 11kts
18-Apr-20 17:40 39.870123 -104.683746 187 5439ft 13kts
18-Apr-20 17:41 39.864923 -104.683812 180 5439ft 17kts
18-Apr-20 17:42 39.864808 -104.677610 90 5439ft 20kts
18-Apr-20 17:43 39.863543 -104.676358 179 5439ft 0kts
18-Apr-20 17:44 39.863543 -104.676358 179 5438ft 0kts
18-Apr-20 17:45 39.863543 -104.676358 179 5438ft 0kts
18-Apr-20 17:46 39.863543 -104.676358 179 5438ft 0kts
18-Apr-20 17:47 39.863543 -104.676358 179 5438ft 0kts
18-Apr-20 17:48 39.863543 -104.676358 179 5438ft 0kts
18-Apr-20 17:49 39.863543 -104.676358 179 5438ft 0kts
18-Apr-20 17:50 39.863543 -104.676358 179 5438ft 0kts
18-Apr-20 17:51 39.863543 -104.676358 179 5438ft 0kts
18-Apr-20 17:52 39.863543 -104.676358 179 5438ft 0kts
18-Apr-20 17:53 39.863543 -104.676358 179 5438ft 0kts

Navigation Log

Ident Type
Flight plan parsing failed, navigation log unavailable